Appleyard, Washington
Current Conditions -  °F | °C
As of 4:55 AM on Wednesday 26 Nov 2014 (Local Time) from KEAT Reporting Station
Moderate Fog Moderate Fog  
Wind Chill: 38°   Ceiling: 200
Heat Index: 38°   Visibility: 0.25mi
Dew Point: 35°   Wind: 3mph
Humidity: 89%   Direction: 180°S
Pressure: 30.18"   Gusts: NA
Location:  47.3635°N, 120.348°W
Report Text: KEAT 261255Z AUTO 18003KT 1/4SM FG BKN002 OVC019 03/02 A3018 RMK AO2 SLP227 T00330017
Loading
Personal Weather Stations






























Interactive Weather Map New forecast layout! Learn more

10-Day Weather Forecast

Advertisements
Track Severe Weather on mobile